createdAt,value
2022-07-26T00:02:28.677Z,99958.84
2022-07-26T00:07:25.039Z,99949.75
2022-07-26T00:12:22.805Z,99952.16
2022-07-26T00:17:19.319Z,99951.50
2022-07-26T00:22:34.343Z,99956.69
2022-07-26T00:27:30.805Z,99950.00
2022-07-26T00:32:27.278Z,99943.47
2022-07-26T00:37:24.945Z,99938.25
2022-07-26T00:42:21.559Z,99940.88
2022-07-26T00:47:18.228Z,99954.34
2022-07-26T00:52:14.827Z,99953.50
2022-07-26T00:57:13.366Z,99954.06
2022-07-26T01:02:11.077Z,99952.75
2022-07-26T01:07:15.039Z,99952.44
2022-07-26T01:12:12.728Z,99943.06
2022-07-26T01:17:09.202Z,99939.41
2022-07-26T01:22:07.137Z,99942.94
2022-07-26T01:27:05.444Z,99940.69
2022-07-26T01:32:04.042Z,99937.22
2022-07-26T01:37:00.757Z,99937.44
2022-07-26T01:41:57.213Z,99931.59
2022-07-26T01:46:53.590Z,99934.81
2022-07-26T01:51:50.026Z,99926.94
2022-07-26T01:56:46.494Z,99935.22
2022-07-26T02:01:42.885Z,99940.28
2022-07-26T02:06:39.252Z,99932.28
2022-07-26T02:11:35.923Z,99936.00
2022-07-26T02:16:32.336Z,99931.31
2022-07-26T02:21:28.809Z,99945.53
2022-07-26T02:26:25.156Z,99945.56
2022-07-26T02:31:21.634Z,99941.44
2022-07-26T02:36:18.433Z,99951.03
2022-07-26T02:41:14.849Z,99954.03
2022-07-26T02:46:11.345Z,99957.34
2022-07-26T02:51:08.014Z,99957.66
2022-07-26T02:56:05.024Z,99956.66
2022-07-26T03:01:01.383Z,99954.31
2022-07-26T03:05:58.041Z,99958.00
2022-07-26T03:10:54.373Z,99963.75
2022-07-26T03:15:50.834Z,99960.38
2022-07-26T03:20:48.013Z,99968.09
2022-07-26T03:25:44.403Z,99966.25
2022-07-26T03:30:40.924Z,99966.78
2022-07-26T03:35:37.336Z,99966.78
2022-07-26T03:40:34.063Z,99980.06
2022-07-26T03:45:30.763Z,99975.69
2022-07-26T03:50:27.240Z,99977.38
2022-07-26T03:55:42.439Z,99988.78
2022-07-26T04:00:38.913Z,99981.91
2022-07-26T04:05:36.173Z,99984.75
2022-07-26T04:10:32.619Z,99988.50
2022-07-26T04:15:29.031Z,99987.28
2022-07-26T04:20:25.496Z,99988.97
2022-07-26T04:25:21.929Z,99987.97
2022-07-26T04:30:18.359Z,99987.13
2022-07-26T04:35:15.704Z,99984.59
2022-07-26T04:40:17.041Z,99993.50
2022-07-26T04:45:14.005Z,99992.31
2022-07-26T04:50:12.076Z,99994.00
2022-07-26T04:55:10.359Z,99987.97
2022-07-26T05:00:21.286Z,99985.59
2022-07-26T05:05:19.061Z,99986.81
2022-07-26T05:10:17.437Z,99988.66
2022-07-26T05:15:15.518Z,99996.03
2022-07-26T05:20:15.599Z,99990.25
2022-07-26T05:25:12.019Z,99996.28
2022-07-26T05:30:09.954Z,100007.34
2022-07-26T05:35:06.867Z,100008.47
2022-07-26T05:40:05.309Z,100007.06
2022-07-26T05:45:01.669Z,100007.53
2022-07-26T05:49:58.181Z,100019.50
2022-07-26T05:54:54.593Z,100023.69
2022-07-26T05:59:50.990Z,100022.19
2022-07-26T06:04:47.774Z,100025.88
2022-07-26T06:09:44.376Z,100029.00
2022-07-26T06:14:40.798Z,100024.19
2022-07-26T06:19:37.627Z,100032.59
2022-07-26T06:24:34.000Z,100044.66
2022-07-26T06:29:32.494Z,100040.72
2022-07-26T06:34:29.562Z,100045.53
2022-07-26T06:39:26.152Z,100044.72
2022-07-26T06:44:22.898Z,100051.53
2022-07-26T06:49:22.760Z,100049.75
2022-07-26T06:54:19.578Z,100052.84
2022-07-26T06:59:16.006Z,100055.22
2022-07-26T07:04:12.573Z,100064.63
2022-07-26T07:09:09.085Z,100067.63
2022-07-26T07:14:07.330Z,100072.16
2022-07-26T07:19:03.898Z,100077.94
2022-07-26T07:24:00.224Z,100069.72
2022-07-26T07:28:58.535Z,100078.00
2022-07-26T07:33:55.093Z,100081.84
2022-07-26T07:38:51.892Z,100088.06
2022-07-26T07:43:48.398Z,100088.44
2022-07-26T07:48:47.529Z,100094.06
2022-07-26T07:53:56.372Z,100107.44
2022-07-26T07:58:53.815Z,100115.66
2022-07-26T08:03:50.960Z,100097.03
2022-07-26T08:08:48.454Z,100106.13
2022-07-26T08:13:47.980Z,100116.78
2022-07-26T08:18:56.290Z,100124.00
2022-07-26T08:23:54.506Z,100119.63
2022-07-26T08:29:00.076Z,100127.56
2022-07-26T08:34:05.606Z,100128.91
2022-07-26T08:39:01.953Z,100136.91
2022-07-26T08:44:08.272Z,100137.19
2022-07-26T08:49:07.057Z,100151.81
2022-07-26T08:54:06.219Z,100146.75
2022-07-26T08:59:17.146Z,100137.81
2022-07-26T09:04:31.824Z,100153.78
2022-07-26T09:09:30.178Z,100147.50
2022-07-26T09:14:37.341Z,100163.72
2022-07-26T09:19:34.906Z,100169.25
2022-07-26T09:24:47.598Z,100180.63
2022-07-26T09:29:50.429Z,100155.44
2022-07-26T09:34:53.196Z,100169.94
2022-07-26T09:39:58.158Z,100181.66
2022-07-26T09:44:56.025Z,100201.63
2022-07-26T09:50:11.731Z,100211.53
2022-07-26T09:55:09.334Z,100213.25
2022-07-26T10:00:07.750Z,100216.59
2022-07-26T10:05:05.673Z,100225.56
2022-07-26T10:10:07.145Z,100231.94
2022-07-26T10:15:03.920Z,100242.88
2022-07-26T10:20:09.405Z,100239.19
2022-07-26T10:25:19.868Z,100233.78
2022-07-26T10:30:19.280Z,100235.75
2022-07-26T10:35:34.393Z,100239.78
2022-07-26T10:40:31.600Z,100246.19
2022-07-26T10:45:28.324Z,100244.31
2022-07-26T10:50:32.826Z,100245.88
2022-07-26T10:55:29.278Z,100272.09
2022-07-26T11:00:26.280Z,100292.31
2022-07-26T11:05:28.670Z,100300.88
2022-07-26T11:10:33.526Z,100310.38
2022-07-26T11:15:30.003Z,100324.25
2022-07-26T11:20:29.796Z,100326.91
2022-07-26T11:25:26.551Z,100321.56
2022-07-26T11:30:22.964Z,100297.50
2022-07-26T11:35:21.362Z,100286.44
2022-07-26T11:40:43.442Z,100277.84
2022-07-26T11:45:40.358Z,100277.09
2022-07-26T11:50:36.991Z,100282.31
2022-07-26T11:55:33.342Z,100280.72
2022-07-26T12:00:29.838Z,100289.34
2022-07-26T12:05:26.471Z,100284.97
2022-07-26T12:10:23.350Z,100290.34
2022-07-26T12:15:19.680Z,100306.88
2022-07-26T12:20:18.031Z,100312.16
2022-07-26T12:25:28.274Z,100328.00
2022-07-26T12:30:25.736Z,100340.09
2022-07-26T12:35:33.515Z,100349.16
2022-07-26T12:40:31.680Z,100347.16
2022-07-26T12:45:33.082Z,100348.50
2022-07-26T12:50:32.745Z,100340.09
2022-07-26T12:55:29.451Z,100334.38
2022-07-26T13:00:25.909Z,100327.97
2022-07-26T13:05:23.688Z,100323.09
2022-07-26T13:10:33.130Z,100338.38
2022-07-26T13:15:35.054Z,100345.56
2022-07-26T13:20:35.955Z,100358.19
2022-07-26T13:25:37.031Z,100361.94
2022-07-26T13:30:38.561Z,100351.34
2022-07-26T13:35:36.341Z,100336.72
2022-07-26T13:40:32.719Z,100344.81
2022-07-26T13:45:29.794Z,100340.59
2022-07-26T13:50:29.775Z,100334.06
2022-07-26T13:55:26.254Z,100342.94
2022-07-26T14:00:22.775Z,100344.09
2022-07-26T14:05:19.276Z,100354.56
2022-07-26T14:10:16.235Z,100379.22
2022-07-26T14:15:18.082Z,100390.63
2022-07-26T14:20:18.256Z,100412.03
2022-07-26T14:25:14.902Z,100413.66
2022-07-26T14:30:12.099Z,100410.03
2022-07-26T14:35:09.327Z,100409.31
2022-07-26T14:40:07.305Z,100405.19
2022-07-26T14:45:03.991Z,100404.13
2022-07-26T14:50:05.817Z,100387.34
2022-07-26T14:55:03.499Z,100376.09
2022-07-26T14:59:59.959Z,100356.47
2022-07-26T15:04:57.126Z,100347.03
2022-07-26T15:09:53.456Z,100349.75
2022-07-26T15:14:49.787Z,100361.28
2022-07-26T15:19:46.123Z,100374.00
2022-07-26T15:24:42.515Z,100379.66
2022-07-26T15:29:38.927Z,100362.13
2022-07-26T15:34:35.459Z,100377.69
2022-07-26T15:39:31.869Z,100378.94
2022-07-26T15:44:28.342Z,100374.63
2022-07-26T15:49:24.763Z,100366.00
2022-07-26T15:54:21.260Z,100360.59
2022-07-26T15:59:17.654Z,100367.09
2022-07-26T16:04:14.270Z,100361.56
2022-07-26T16:09:17.884Z,100362.72
2022-07-26T16:14:16.426Z,100352.97
2022-07-26T16:19:13.518Z,100365.63
2022-07-26T16:24:10.254Z,100362.66
2022-07-26T16:29:06.613Z,100366.31
2022-07-26T16:34:02.966Z,100360.28
2022-07-26T16:38:59.583Z,100361.28
2022-07-26T16:43:57.074Z,100354.63
2022-07-26T16:48:53.569Z,100362.50
2022-07-26T16:53:51.658Z,100359.88
2022-07-26T16:58:48.201Z,100375.38
2022-07-26T17:03:45.098Z,100370.97
2022-07-26T17:08:41.742Z,100373.91
2022-07-26T17:13:38.794Z,100387.59
2022-07-26T17:18:35.628Z,100386.16
2022-07-26T17:23:32.179Z,100380.84
2022-07-26T17:28:28.643Z,100375.84
2022-07-26T17:33:25.238Z,100383.88
2022-07-26T17:38:21.641Z,100392.00
2022-07-26T17:43:19.452Z,100388.19
2022-07-26T17:48:15.787Z,100403.16
2022-07-26T17:53:12.156Z,100407.44
2022-07-26T17:58:08.497Z,100404.41
2022-07-26T18:03:04.856Z,100399.38
2022-07-26T18:08:01.406Z,100391.25
2022-07-26T18:12:57.782Z,100406.34
2022-07-26T18:17:54.154Z,100426.09
2022-07-26T18:22:50.693Z,100421.09
2022-07-26T18:27:47.163Z,100425.13
2022-07-26T18:32:43.470Z,100433.78
2022-07-26T18:37:39.874Z,100430.41
2022-07-26T18:42:36.701Z,100427.38
2022-07-26T18:47:33.168Z,100438.72
2022-07-26T18:52:31.986Z,100438.34
2022-07-26T18:57:29.003Z,100436.06
2022-07-26T19:02:25.726Z,100429.94
2022-07-26T19:07:22.223Z,100426.03
2022-07-26T19:12:18.579Z,100418.88
2022-07-26T19:17:14.970Z,100420.75
2022-07-26T19:22:11.477Z,100419.69
2022-07-26T19:27:09.404Z,100421.81
2022-07-26T19:32:06.188Z,100417.47
2022-07-26T19:37:03.000Z,100428.53
2022-07-26T19:41:59.419Z,100432.91
2022-07-26T19:46:57.894Z,100440.19
2022-07-26T19:51:54.466Z,100445.44
2022-07-26T19:56:50.910Z,100445.06
2022-07-26T20:01:52.094Z,100456.13
2022-07-26T20:06:50.850Z,100460.25
2022-07-26T20:11:50.788Z,100457.72
2022-07-26T20:16:50.541Z,100466.25
2022-07-26T20:21:50.660Z,100474.53
2022-07-26T20:26:47.745Z,100488.06
2022-07-26T20:31:44.791Z,100485.50
2022-07-26T20:36:41.202Z,100481.84
2022-07-26T20:41:37.691Z,100489.16
2022-07-26T20:46:39.930Z,100502.44
2022-07-26T20:51:36.559Z,100506.94
2022-07-26T20:56:33.785Z,100506.09
2022-07-26T21:01:31.291Z,100515.16
2022-07-26T21:06:29.191Z,100517.44
2022-07-26T21:11:26.154Z,100525.03
2022-07-26T21:16:22.592Z,100521.38
2022-07-26T21:21:19.012Z,100525.34
2022-07-26T21:26:15.480Z,100522.81
2022-07-26T21:31:12.575Z,100531.84
2022-07-26T21:36:08.901Z,100531.97
2022-07-26T21:41:05.271Z,100534.66
2022-07-26T21:46:01.775Z,100536.63
2022-07-26T21:50:58.194Z,100534.50
2022-07-26T21:55:54.567Z,100533.53
2022-07-26T22:00:51.076Z,100545.22
2022-07-26T22:05:47.431Z,100544.66
2022-07-26T22:10:45.360Z,100552.53
2022-07-26T22:15:42.329Z,100551.25
2022-07-26T22:20:39.472Z,100550.13
2022-07-26T22:25:36.786Z,100547.75
2022-07-26T22:30:33.253Z,100551.00
2022-07-26T22:35:35.009Z,100554.06
2022-07-26T22:40:33.306Z,100556.75
2022-07-26T22:45:30.985Z,100559.41
2022-07-26T22:50:27.920Z,100558.59
2022-07-26T22:55:24.296Z,100557.47
2022-07-26T23:00:20.963Z,100560.56
2022-07-26T23:05:17.627Z,100565.91
2022-07-26T23:10:17.052Z,100568.16
2022-07-26T23:15:13.523Z,100573.94
2022-07-26T23:20:10.191Z,100571.25
2022-07-26T23:25:06.849Z,100570.56
2022-07-26T23:30:03.519Z,100571.84
2022-07-26T23:34:59.854Z,100576.88
2022-07-26T23:39:56.247Z,100574.06
2022-07-26T23:44:52.582Z,100568.72
2022-07-26T23:49:49.154Z,100567.84
2022-07-26T23:54:45.534Z,100562.09
2022-07-26T23:59:41.895Z,100566.47
